Manvel, ND

12:42 PM CST on February 28, 2015 (GMT -0600)
Crookston Municipal-Kirkwood | Change Station
CLOSE
Current Station
Airport
Location: Crookston,
Elevation: 899 ft
Nearby Weather Stations

Elev 899 ft 47.84 °N, 96.62 °W | Updated 8 minutes ago

Partly Cloudy
Partly Cloudy
21 °F
Feels Like 6 °F
N
21
Wind Variable Wind from South
Gusts 25 mph

Today
High -- | Low -- °F
--% Chance of Precip.
Yesterday
High -- | Low -- °F
Precip. -- in
7:12 AM 6:11 PM
Waxing Gibbous, 79% visible
Pressure 30.19 in
Visibility 10.0 miles
Clouds Scattered Clouds 9000 ft
Windchill 6 °F
Dew Point 12 °F
Humidity 68%
Rainfall 0.00 in
Snow Depth Not available.
UV 3 out of 12
Pollen .10 out of 12
Air Quality Not available.
Flu Activity Not available.
METAR KCKN 281834Z AUTO 19018G22KT 10SM SCT090 M06/M11 A3019 RMK AO2

More Conditions Fewer Conditions

Pressure 30.19 in
Visibility 10.0 miles
Clouds Scattered Clouds 9000 ft
Windchill 6 °F
Dew Point 12 °F
Humidity 68%
Rainfall 0.00 in
Snow Depth Not available.
UV 3 out of 12
Pollen .10 out of 12
Air Quality Not available.
Flu Activity Not available.
METAR KCKN 281834Z AUTO 19018G22KT 10SM SCT090 M06/M11 A3019 RMK AO2

More Conditions Fewer Conditions

10-Day Weather Forecast

Almanac

Astronomy

Feb. 28, 2015 Rise Set
Actual Time
Civil Twilight
Nautical Twilight
Astronomical Twilight
Moon
Length of Visible Light
Length of Day
Tomorrow will be .
, % of the Moon is Illuminated

Today's Extremes

State Highs State Lows

Community

WunderPhotos

Upload Photos

1,801,111 photos uploaded!

WunderBlogs® & News

Nearby

Air Quality

  Air Quality AQ Index Pollutant
Not available.

Snow Depth

Station Depth Elevation

Earthquake Activity

City Distance Mag. Time & Date
Minimum magnitude displayed is 2.5.

Coastal Water Temperatures

Place Temperature

Nearby Weather Stations